createdAt,value
2018-04-28T00:01:44.707Z,97008.78
2018-04-28T00:04:12.226Z,97006.17
2018-04-28T00:06:39.738Z,97013.73
2018-04-28T00:09:08.149Z,97015.05
2018-04-28T00:11:35.649Z,97017.72
2018-04-28T00:14:03.178Z,97022.56
2018-04-28T00:16:30.663Z,97030.48
2018-04-28T00:19:02.050Z,97036.86
2018-04-28T00:21:38.986Z,97038.16
2018-04-28T00:24:09.929Z,97039.48
2018-04-28T00:26:38.178Z,97034.95
2018-04-28T00:29:06.493Z,97034.77
2018-04-28T00:31:51.142Z,97037.99
2018-04-28T00:34:18.679Z,97038.88
2018-04-28T00:40:08.510Z,97041.41
2018-04-28T00:42:39.918Z,97046.41
2018-04-28T00:48:25.962Z,97044.94
2018-04-28T00:51:02.455Z,97051.54
2018-04-28T00:53:29.945Z,97053.14
2018-04-28T00:55:57.463Z,97052.70
2018-04-28T00:58:40.641Z,97057.04
2018-04-28T01:01:26.937Z,97053.77
2018-04-28T01:03:54.433Z,97059.95
2018-04-28T01:06:21.945Z,97059.33
2018-04-28T01:08:49.432Z,97061.44
2018-04-28T01:11:16.955Z,97067.91
2018-04-28T01:13:45.278Z,97064.09
2018-04-28T01:16:13.683Z,97075.41
2018-04-28T01:18:54.024Z,97082.42
2018-04-28T01:21:23.208Z,97079.55
2018-04-28T01:23:54.221Z,97082.19
2018-04-28T01:29:32.658Z,97088.45
2018-04-28T01:32:09.557Z,97093.20
2018-04-28T01:34:41.789Z,97091.75
2018-04-28T01:40:12.982Z,97098.59
2018-04-28T01:42:44.148Z,97095.30
2018-04-28T01:45:23.609Z,97097.60
2018-04-28T01:50:58.573Z,97106.58
2018-04-28T01:53:31.882Z,97103.25
2018-04-28T01:56:03.825Z,97115.75
2018-04-28T01:58:33.053Z,97118.69
2018-04-28T02:01:02.486Z,97120.80
2018-04-28T02:03:41.829Z,97122.13
2018-04-28T02:06:18.043Z,97121.73
2018-04-28T02:08:49.074Z,97127.53
2018-04-28T02:11:30.209Z,97131.44
2018-04-28T02:14:00.314Z,97135.47
2018-04-28T02:16:31.694Z,97144.05
2018-04-28T02:19:12.425Z,97139.81
2018-04-28T02:24:55.686Z,97138.42
2018-04-28T02:27:23.230Z,97145.95
2018-04-28T02:30:05.612Z,97156.44
2018-04-28T02:32:36.007Z,97157.36
2018-04-28T02:35:22.056Z,97150.23
2018-04-28T02:41:01.058Z,97164.28
2018-04-28T02:43:53.179Z,97164.24
2018-04-28T02:49:29.032Z,97162.14
2018-04-28T02:52:01.479Z,97167.16
2018-04-28T02:54:32.982Z,97173.03
2018-04-28T02:59:57.398Z,97182.33
2018-04-28T03:02:28.823Z,97181.17
2018-04-28T03:04:59.034Z,97167.73
2018-04-28T03:07:38.146Z,97169.27
2018-04-28T03:10:09.387Z,97179.17
2018-04-28T03:12:36.901Z,97185.62
2018-04-28T03:15:04.397Z,97186.67
2018-04-28T03:17:34.373Z,97193.63
2018-04-28T03:20:19.293Z,97196.07
2018-04-28T03:22:50.612Z,97194.80
2018-04-28T03:25:21.598Z,97207.41
2018-04-28T03:31:02.591Z,97186.77
2018-04-28T03:33:32.969Z,97218.73
2018-04-28T03:39:27.221Z,97224.26
2018-04-28T03:44:51.482Z,97237.09
2018-04-28T03:50:22.482Z,97240.39
2018-04-28T03:52:52.706Z,97245.91
2018-04-28T03:55:23.873Z,97246.81
2018-04-28T03:58:03.301Z,97254.70
2018-04-28T04:00:42.595Z,97252.05
2018-04-28T04:03:19.891Z,97257.02
2018-04-28T04:06:06.197Z,97230.89
2018-04-28T04:11:54.833Z,97240.83
2018-04-28T04:17:54.658Z,97248.52
2018-04-28T04:20:32.055Z,97253.38
2018-04-28T04:23:05.424Z,97257.95
2018-04-28T04:25:41.413Z,97259.65
2018-04-28T04:28:18.618Z,97261.41
2018-04-28T04:33:49.614Z,97263.84
2018-04-28T04:39:37.478Z,97262.67
2018-04-28T04:42:11.769Z,97266.52
2018-04-28T04:44:46.953Z,97264.55
2018-04-28T04:47:20.377Z,97281.16
2018-04-28T04:52:57.229Z,97278.94
2018-04-28T04:55:32.458Z,97281.86
2018-04-28T05:01:16.982Z,97280.14
2018-04-28T05:03:53.157Z,97283.30
2018-04-28T05:06:36.454Z,97292.76
2018-04-28T05:09:15.834Z,97285.13
2018-04-28T05:15:03.682Z,97277.94
2018-04-28T05:17:33.065Z,97283.09
2018-04-28T05:20:07.287Z,97286.63
2018-04-28T05:25:47.042Z,97292.59
2018-04-28T05:28:28.455Z,97287.59
2018-04-28T05:34:04.801Z,97289.53
2018-04-28T05:39:49.560Z,97284.41
2018-04-28T05:48:37.877Z,97293.02
2018-04-28T05:51:31.236Z,97298.72
2018-04-28T05:54:10.576Z,97302.30
2018-04-28T05:56:49.929Z,97292.91
2018-04-28T05:59:39.166Z,97290.38
2018-04-28T06:05:14.898Z,97295.20
2018-04-28T06:14:08.177Z,97299.82
2018-04-28T06:16:45.145Z,97294.14
2018-04-28T06:19:19.598Z,97292.61
2018-04-28T06:21:47.114Z,97287.57
2018-04-28T06:24:14.622Z,97288.20
2018-04-28T06:26:42.139Z,97287.39
2018-04-28T06:29:09.645Z,97278.47
2018-04-28T06:31:37.165Z,97274.88
2018-04-28T06:34:04.648Z,97276.81
2018-04-28T06:36:32.153Z,97282.05
2018-04-28T06:38:59.674Z,97282.54
2018-04-28T06:41:27.238Z,97280.44
2018-04-28T06:43:54.730Z,97283.08
2018-04-28T06:46:22.305Z,97283.53
2018-04-28T06:48:49.798Z,97281.86
2018-04-28T06:51:17.310Z,97284.45
2018-04-28T06:53:44.810Z,97280.26
2018-04-28T06:56:12.334Z,97284.19
2018-04-28T06:58:39.847Z,97271.59
2018-04-28T07:01:07.371Z,97265.03
2018-04-28T07:03:34.876Z,97269.64
2018-04-28T07:06:02.402Z,97274.35
2018-04-28T07:08:29.941Z,97274.98
2018-04-28T07:10:57.434Z,97273.55
2018-04-28T07:13:24.944Z,97280.05
2018-04-28T07:15:52.801Z,97282.27
2018-04-28T07:18:20.330Z,97277.41
2018-04-28T07:20:47.830Z,97263.38
2018-04-28T07:23:15.354Z,97257.70
2018-04-28T07:25:42.850Z,97267.55
2018-04-28T07:28:10.376Z,97262.05
2018-04-28T07:30:37.920Z,97257.47
2018-04-28T07:33:05.437Z,97257.23
2018-04-28T07:35:32.943Z,97249.45
2018-04-28T07:38:00.775Z,97250.29
2018-04-28T07:40:28.305Z,97258.30
2018-04-28T07:42:56.457Z,97260.06
2018-04-28T07:45:23.980Z,97251.23
2018-04-28T07:47:51.560Z,97250.70
2018-04-28T07:50:19.146Z,97245.64
2018-04-28T07:52:46.652Z,97247.53
2018-04-28T07:55:14.145Z,97246.12
2018-04-28T07:57:41.659Z,97248.17
2018-04-28T08:00:09.149Z,97255.92
2018-04-28T08:02:36.660Z,97256.17
2018-04-28T08:05:04.166Z,97254.67
2018-04-28T08:07:32.579Z,97242.70
2018-04-28T08:10:00.085Z,97243.17
2018-04-28T08:12:27.586Z,97238.89
2018-04-28T08:14:55.093Z,97244.66
2018-04-28T08:17:22.646Z,97255.81
2018-04-28T08:19:50.166Z,97251.50
2018-04-28T08:22:17.657Z,97256.55
2018-04-28T08:24:45.185Z,97268.25
2018-04-28T08:27:12.775Z,97268.70
2018-04-28T08:29:40.295Z,97255.70
2018-04-28T08:32:08.741Z,97250.74
2018-04-28T08:34:36.375Z,97246.53
2018-04-28T08:37:03.877Z,97248.20
2018-04-28T08:39:31.774Z,97245.03
2018-04-28T08:41:59.293Z,97245.39
2018-04-28T08:44:27.298Z,97237.62
2018-04-28T08:46:54.863Z,97243.10
2018-04-28T08:49:22.378Z,97240.77
2018-04-28T08:51:49.871Z,97235.45
2018-04-28T08:54:17.385Z,97234.11
2018-04-28T08:56:44.961Z,97233.63
2018-04-28T09:01:48.704Z,97244.81
2018-04-28T09:04:16.416Z,97239.80
2018-04-28T09:06:45.784Z,97238.20
2018-04-28T09:09:13.317Z,97230.46
2018-04-28T09:11:40.842Z,97229.92
2018-04-28T09:14:08.327Z,97219.70
2018-04-28T09:16:35.840Z,97226.67
2018-04-28T09:19:03.339Z,97218.99
2018-04-28T09:21:30.854Z,97221.54
2018-04-28T09:23:58.344Z,97184.25
2018-04-28T09:26:25.945Z,97223.72
2018-04-28T09:28:53.369Z,97228.03
2018-04-28T09:31:20.877Z,97223.25
2018-04-28T09:33:48.374Z,97229.49
2018-04-28T09:36:15.876Z,97228.59
2018-04-28T09:38:43.361Z,97217.08
2018-04-28T09:41:10.868Z,97212.88
2018-04-28T09:43:38.358Z,97211.21
2018-04-28T09:46:05.868Z,97203.39
2018-04-28T09:48:33.359Z,97197.39
2018-04-28T09:51:00.870Z,97197.84
2018-04-28T09:53:28.358Z,97192.38
2018-04-28T09:55:55.870Z,97197.21
2018-04-28T09:58:23.363Z,97204.00
2018-04-28T10:00:50.880Z,97198.56
2018-04-28T10:03:22.119Z,97184.53
2018-04-28T10:05:49.671Z,97174.81
2018-04-28T10:08:17.147Z,97175.61
2018-04-28T10:10:44.633Z,97169.95
2018-04-28T10:13:12.132Z,97167.91
2018-04-28T10:15:39.619Z,97167.75
2018-04-28T10:18:07.146Z,97163.80
2018-04-28T10:20:34.650Z,97158.58
2018-04-28T10:23:02.171Z,97158.45
2018-04-28T10:25:29.671Z,97152.41
2018-04-28T10:27:57.694Z,97149.32
2018-04-28T10:30:25.182Z,97149.23
2018-04-28T10:32:52.730Z,97138.66
2018-04-28T10:35:20.229Z,97134.92
2018-04-28T10:37:47.738Z,97130.90
2018-04-28T10:40:15.225Z,97127.45
2018-04-28T10:42:42.746Z,97118.41
2018-04-28T10:45:10.233Z,97125.09
2018-04-28T10:47:37.812Z,97113.98
2018-04-28T10:50:05.256Z,97111.81
2018-04-28T10:52:32.765Z,97113.50
2018-04-28T10:55:00.305Z,97112.00
2018-04-28T10:57:27.825Z,97104.06
2018-04-28T10:59:55.316Z,97101.16
2018-04-28T11:02:22.813Z,97095.58
2018-04-28T11:04:50.334Z,97094.85
2018-04-28T11:07:17.826Z,97092.25
2018-04-28T11:09:45.363Z,97090.14
2018-04-28T11:12:12.873Z,97083.63
2018-04-28T11:14:40.413Z,97080.20
2018-04-28T11:17:07.914Z,97085.66
2018-04-28T11:19:35.487Z,97088.44
2018-04-28T11:22:02.986Z,97097.84
2018-04-28T11:24:30.506Z,97087.52
2018-04-28T11:26:57.997Z,97077.08
2018-04-28T11:29:25.518Z,97078.50
2018-04-28T11:31:53.001Z,97076.74
2018-04-28T11:34:20.533Z,97072.64
2018-04-28T11:36:48.031Z,97076.68
2018-04-28T11:39:15.544Z,97068.03
2018-04-28T11:41:43.029Z,97070.95
2018-04-28T11:44:10.540Z,97064.67
2018-04-28T11:46:38.902Z,97063.83
2018-04-28T11:49:06.417Z,97063.89
2018-04-28T11:51:33.961Z,97062.57
2018-04-28T11:54:01.488Z,97063.59
2018-04-28T11:56:28.992Z,97061.31
2018-04-28T11:58:56.493Z,97059.94
2018-04-28T12:01:26.056Z,97049.73
2018-04-28T12:03:53.621Z,97045.79
2018-04-28T12:06:21.986Z,97040.90
2018-04-28T12:08:49.469Z,97045.23
2018-04-28T12:11:18.747Z,97038.79
2018-04-28T12:13:46.239Z,97037.45
2018-04-28T12:16:13.753Z,97045.29
2018-04-28T12:18:42.091Z,97042.70
2018-04-28T12:21:12.074Z,97035.17
2018-04-28T12:23:45.571Z,97034.94
2018-04-28T12:26:17.712Z,97018.78
2018-04-28T12:28:50.470Z,97014.05
2018-04-28T12:31:17.983Z,97020.41
2018-04-28T12:33:45.471Z,97016.59
2018-04-28T12:36:12.985Z,97003.67
2018-04-28T12:38:40.474Z,97006.23
2018-04-28T12:41:07.982Z,97009.45
2018-04-28T12:43:35.479Z,97007.54
2018-04-28T12:46:02.990Z,97003.95
2018-04-28T12:48:30.491Z,97001.94
2018-04-28T12:50:58.979Z,96998.79
2018-04-28T12:53:26.468Z,96996.19
2018-04-28T12:55:53.978Z,96997.48
2018-04-28T12:58:21.474Z,96994.94
2018-04-28T13:00:48.991Z,96986.98
2018-04-28T13:03:16.489Z,96984.61
2018-04-28T13:05:43.990Z,96985.36
2018-04-28T13:08:11.530Z,96981.02
2018-04-28T13:10:39.029Z,96978.13
2018-04-28T13:13:06.537Z,96977.43
2018-04-28T13:15:34.035Z,96970.34
2018-04-28T13:18:01.600Z,96972.02
2018-04-28T13:20:29.166Z,96963.61
2018-04-28T13:22:56.677Z,96967.36
2018-04-28T13:25:24.165Z,96965.38
2018-04-28T13:27:51.674Z,96957.18
2018-04-28T13:30:19.165Z,96956.22
2018-04-28T13:32:46.673Z,96949.34
2018-04-28T13:35:14.165Z,96947.91
2018-04-28T13:37:41.706Z,96942.08
2018-04-28T13:40:09.197Z,96941.27
2018-04-28T13:42:36.722Z,96937.39
2018-04-28T13:45:04.214Z,96927.52
2018-04-28T13:47:31.726Z,96936.37
2018-04-28T13:49:59.223Z,96942.37
2018-04-28T13:52:26.746Z,96929.77
2018-04-28T13:54:54.233Z,96930.28
2018-04-28T13:57:21.764Z,96923.15
2018-04-28T13:59:49.282Z,96917.94
2018-04-28T14:02:16.793Z,96895.86
2018-04-28T14:04:44.310Z,96914.48
2018-04-28T14:07:11.806Z,96916.48
2018-04-28T14:09:40.296Z,96909.48
2018-04-28T14:12:07.793Z,96907.42
2018-04-28T14:14:35.310Z,96896.28
2018-04-28T14:17:02.803Z,96889.47
2018-04-28T14:19:30.330Z,96902.48
2018-04-28T14:21:57.828Z,96895.19
2018-04-28T14:24:25.345Z,96894.34
2018-04-28T14:26:52.884Z,96894.89
2018-04-28T14:29:20.373Z,96901.42
2018-04-28T14:31:47.858Z,96889.19
2018-04-28T14:34:15.370Z,96890.98
2018-04-28T14:36:42.858Z,96894.16
2018-04-28T14:39:10.378Z,96886.68
2018-04-28T14:41:37.870Z,96874.15
2018-04-28T14:44:05.378Z,96880.36
2018-04-28T14:46:32.876Z,96876.60
2018-04-28T14:49:00.402Z,96877.61
2018-04-28T14:51:27.905Z,96879.80
2018-04-28T14:53:55.393Z,96875.58
2018-04-28T14:56:22.906Z,96869.22
2018-04-28T14:58:50.406Z,96871.48
2018-04-28T15:01:18.016Z,96860.56
2018-04-28T15:03:45.473Z,96857.89
2018-04-28T15:06:12.981Z,96860.02
2018-04-28T15:08:41.266Z,96856.27
2018-04-28T15:11:08.798Z,96848.58
2018-04-28T15:13:36.300Z,96848.11
2018-04-28T15:16:03.808Z,96846.77
2018-04-28T15:18:31.293Z,96846.34
2018-04-28T15:20:58.810Z,96844.47
2018-04-28T15:23:26.344Z,96839.31
2018-04-28T15:25:53.862Z,96834.97
2018-04-28T15:28:21.367Z,96850.33
2018-04-28T15:30:49.094Z,96850.34
2018-04-28T15:33:16.583Z,96842.69
2018-04-28T15:35:44.082Z,96844.05
2018-04-28T15:38:11.569Z,96841.78
2018-04-28T15:40:39.074Z,96835.70
2018-04-28T15:43:06.574Z,96838.23
2018-04-28T15:45:34.087Z,96835.68
2018-04-28T15:48:01.583Z,96834.17
2018-04-28T15:50:29.068Z,96835.47
2018-04-28T15:52:56.583Z,96833.38
2018-04-28T15:55:24.094Z,96829.48
2018-04-28T15:57:51.616Z,96826.05
2018-04-28T16:00:19.105Z,96822.92
2018-04-28T16:02:46.722Z,96825.44
2018-04-28T16:05:14.177Z,96823.64
2018-04-28T16:07:42.786Z,96828.12
2018-04-28T16:10:10.273Z,96820.39
2018-04-28T16:12:38.423Z,96660.75
2018-04-28T16:15:06.088Z,96826.54
2018-04-28T16:17:33.445Z,96816.22
2018-04-28T16:20:00.937Z,96818.84
2018-04-28T16:22:28.884Z,96809.50
2018-04-28T16:24:56.813Z,96804.23
2018-04-28T16:27:24.718Z,96808.52
2018-04-28T16:29:52.208Z,96806.67
2018-04-28T16:32:19.724Z,96810.84
2018-04-28T16:34:47.213Z,96804.05
2018-04-28T16:37:14.742Z,96803.98
2018-04-28T16:39:42.230Z,96806.07
2018-04-28T16:42:09.749Z,96806.87
2018-04-28T16:44:37.241Z,96801.30
2018-04-28T16:47:04.739Z,96802.13
2018-04-28T16:49:32.248Z,96803.81
2018-04-28T16:51:59.886Z,96802.09
2018-04-28T16:54:27.412Z,96803.80
2018-04-28T16:56:54.905Z,96800.75
2018-04-28T16:59:22.431Z,96794.75
2018-04-28T17:01:49.918Z,96798.59
2018-04-28T17:04:17.425Z,96797.69
2018-04-28T17:06:44.949Z,96794.23
2018-04-28T17:09:12.470Z,96796.84
2018-04-28T17:11:39.966Z,96804.03
2018-04-28T17:14:07.478Z,96800.13
2018-04-28T17:16:34.965Z,96797.00
2018-04-28T17:19:02.474Z,96797.02
2018-04-28T17:21:29.976Z,96802.08
2018-04-28T17:23:57.494Z,96801.97
2018-04-28T17:26:24.990Z,96796.34
2018-04-28T17:28:52.506Z,96802.22
2018-04-28T17:31:20.000Z,96802.11
2018-04-28T17:33:47.516Z,96806.70
2018-04-28T17:36:15.011Z,96810.02
2018-04-28T17:38:42.533Z,96813.31
2018-04-28T17:41:10.024Z,96809.41
2018-04-28T17:43:37.505Z,96814.72
2018-04-28T17:46:05.014Z,96814.86
2018-04-28T17:48:32.521Z,96816.79
2018-04-28T17:51:00.092Z,96821.28
2018-04-28T17:53:27.584Z,96819.86
2018-04-28T17:55:55.096Z,96818.36
2018-04-28T17:58:22.581Z,96812.49
2018-04-28T18:00:50.174Z,96819.16
2018-04-28T18:03:17.664Z,96818.20
2018-04-28T18:05:45.185Z,96819.10
2018-04-28T18:08:12.677Z,96831.95
2018-04-28T18:10:40.189Z,96829.51
2018-04-28T18:13:07.697Z,96830.61
2018-04-28T18:15:35.223Z,96835.52
2018-04-28T18:18:02.729Z,96832.75
2018-04-28T18:20:30.252Z,96829.87
2018-04-28T18:22:57.741Z,96835.50
2018-04-28T18:25:25.261Z,96835.71
2018-04-28T18:27:52.748Z,96838.84
2018-04-28T18:30:20.308Z,96838.20
2018-04-28T18:32:47.806Z,96832.08
2018-04-28T18:35:15.300Z,96837.98
2018-04-28T18:37:42.818Z,96843.36
2018-04-28T18:40:10.358Z,96843.59
2018-04-28T18:42:37.916Z,96850.16
2018-04-28T18:45:05.401Z,96852.34
2018-04-28T18:47:33.068Z,96853.25
2018-04-28T18:50:00.569Z,96856.91
2018-04-28T18:52:28.138Z,96857.56
2018-04-28T18:54:55.645Z,96861.53
2018-04-28T18:57:23.184Z,96858.63
2018-04-28T18:59:50.753Z,96862.14
2018-04-28T19:02:18.405Z,96857.92
2018-04-28T19:04:45.888Z,96847.47
2018-04-28T19:07:13.409Z,96861.20
2018-04-28T19:09:40.962Z,96862.30
2018-04-28T19:12:08.470Z,96865.19
2018-04-28T19:14:35.958Z,96861.64
2018-04-28T19:17:03.467Z,96867.86
2018-04-28T19:19:31.011Z,96871.64
2018-04-28T19:21:58.481Z,96868.44
2018-04-28T19:24:25.976Z,96866.28
2018-04-28T19:26:53.483Z,96875.15
2018-04-28T19:29:21.686Z,96878.69
2018-04-28T19:31:49.165Z,96875.00
2018-04-28T19:34:16.669Z,96876.42
2018-04-28T19:36:44.162Z,96881.36
2018-04-28T19:39:11.666Z,96881.69
2018-04-28T19:41:39.150Z,96872.50
2018-04-28T19:44:06.665Z,96871.62
2018-04-28T19:46:34.160Z,96883.59
2018-04-28T19:49:01.684Z,96875.17
2018-04-28T19:51:29.195Z,96880.45
2018-04-28T19:53:56.709Z,96872.62
2018-04-28T19:56:24.258Z,96877.98
2018-04-28T19:58:51.834Z,96874.39
2018-04-28T20:01:19.322Z,96876.29
2018-04-28T20:03:47.817Z,96873.66
2018-04-28T20:06:15.303Z,96869.63
2018-04-28T20:08:42.812Z,96870.91
2018-04-28T20:11:10.596Z,96869.81
2018-04-28T20:13:38.255Z,96843.91
2018-04-28T20:16:05.974Z,96861.11
2018-04-28T20:18:33.545Z,96865.20
2018-04-28T20:21:01.042Z,96862.02
2018-04-28T20:23:40.513Z,96865.59
2018-04-28T20:26:08.015Z,96862.94
2018-04-28T20:28:35.496Z,96867.91
2018-04-28T20:31:03.027Z,96872.83
2018-04-28T20:33:30.529Z,96870.67
2018-04-28T20:35:58.058Z,96865.88
2018-04-28T20:38:25.551Z,96860.34
2018-04-28T20:40:53.060Z,96861.08
2018-04-28T20:43:20.613Z,96856.33
2018-04-28T20:45:48.130Z,96851.80
2018-04-28T20:48:15.617Z,96847.05
2018-04-28T20:50:44.047Z,96850.53
2018-04-28T20:53:11.535Z,96845.02
2018-04-28T20:55:39.042Z,96852.08
2018-04-28T20:58:06.535Z,96853.63
2018-04-28T21:00:34.053Z,96846.37
2018-04-28T21:03:01.547Z,96846.65
2018-04-28T21:05:29.057Z,96847.44
2018-04-28T21:07:56.545Z,96836.56
2018-04-28T21:10:24.057Z,96835.67
2018-04-28T21:12:51.561Z,96843.33
2018-04-28T21:15:19.065Z,96841.27
2018-04-28T21:17:46.545Z,96839.67
2018-04-28T21:20:14.052Z,96840.44
2018-04-28T21:22:41.543Z,96840.93
2018-04-28T21:25:09.042Z,96848.13
2018-04-28T21:27:36.553Z,96846.50
2018-04-28T21:30:04.057Z,96839.30
2018-04-28T21:32:31.568Z,96838.52
2018-04-28T21:34:59.049Z,96844.42
2018-04-28T21:37:26.558Z,96841.58
2018-04-28T21:39:54.046Z,96836.20
2018-04-28T21:42:21.569Z,96832.78
2018-04-28T21:44:49.053Z,96833.27
2018-04-28T21:47:16.573Z,96835.81
2018-04-28T21:49:44.077Z,96837.92
2018-04-28T21:52:11.598Z,96834.62
2018-04-28T21:54:39.087Z,96844.44
2018-04-28T21:57:06.611Z,96838.22
2018-04-28T21:59:34.113Z,96832.96
2018-04-28T22:02:01.635Z,96838.77
2018-04-28T22:04:29.126Z,96837.11
2018-04-28T22:06:56.658Z,96838.33
2018-04-28T22:09:24.155Z,96830.53
2018-04-28T22:11:51.670Z,96826.03
2018-04-28T22:14:19.153Z,96827.78
2018-04-28T22:16:46.684Z,96826.38
2018-04-28T22:19:14.169Z,96826.56
2018-04-28T22:21:41.672Z,96823.09
2018-04-28T22:24:09.176Z,96817.63
2018-04-28T22:26:36.681Z,96823.97
2018-04-28T22:29:04.198Z,96816.85
2018-04-28T22:31:31.683Z,96819.31
2018-04-28T22:33:59.193Z,96826.23
2018-04-28T22:36:26.706Z,96822.48
2018-04-28T22:38:54.219Z,96831.13
2018-04-28T22:41:21.701Z,96827.46
2018-04-28T22:43:49.218Z,96836.45
2018-04-28T22:46:16.706Z,96834.61
2018-04-28T22:48:44.253Z,96832.26
2018-04-28T22:51:11.741Z,96837.52
2018-04-28T22:53:39.250Z,96828.84
2018-04-28T22:56:06.751Z,96829.58
2018-04-28T22:58:34.902Z,96828.61
2018-04-28T23:01:02.405Z,96826.91
2018-04-28T23:03:29.915Z,96824.74
2018-04-28T23:05:57.405Z,96819.88
2018-04-28T23:08:24.923Z,96818.06
2018-04-28T23:10:52.410Z,96817.87
2018-04-28T23:13:19.897Z,96819.37
2018-04-28T23:15:47.402Z,96812.45
2018-04-28T23:18:14.907Z,96817.41
2018-04-28T23:20:42.441Z,96808.76
2018-04-28T23:23:09.934Z,96805.24
2018-04-28T23:25:37.445Z,96799.17
2018-04-28T23:28:04.929Z,96797.01
2018-04-28T23:30:32.450Z,96799.53
2018-04-28T23:32:59.952Z,96792.33
2018-04-28T23:35:27.465Z,96790.33
2018-04-28T23:37:54.958Z,96796.77
2018-04-28T23:40:22.466Z,96790.27
2018-04-28T23:42:49.958Z,96790.19
2018-04-28T23:45:17.465Z,96793.15
2018-04-28T23:47:44.958Z,96788.70
2018-04-28T23:50:12.464Z,96785.43
2018-04-28T23:52:39.958Z,96785.81
2018-04-28T23:55:07.469Z,96781.42
2018-04-28T23:57:34.949Z,96780.82
